»·PEaware :: UAL550 KSFO-KPDX

UAL550 :: KSFO-KPDX

FLIGHT INFORMATION

Flight Status: Arrived
Operator:
United Airlines
More flights by this operator :: More flights under this callsign
Pilot: Jaden S. (17663)
Aircraft: BOEING 737-800
(B738)
More flights by this aircraft type
Origin: KSFO San Francisco Intl
United States
Destination: KPDX Portland Intl
United States
More flights between these airports :: More routes between these airports
Route: +TRUKN2 GRTFL MACHU TMBRS2
File this flight plan on PilotEdge
Remarks:
Altitude:
(Current/Filed)
36,000ft
Speed:
(Current/Filed)
400kts
Departed: 26-Dec-17 10:28 AM
Arrived: 26-Dec-17 11:49 AM
Distance/Time
Traveled:
478nm/1:21
Distance/Time
To Go:
Arrived

Flight Plot

Page will automatically refresh every two minutes.


Map Options




Map Legend


Flown Route
Filed Route
Departure Airport
Arrival Airport
Navaid (VOR, NDB)
Fix

Horizontal Profiles

Position Reports

Time Latitude Longitude Heading Altitude Ground
Speed
26-Dec-17 10:14 37.618892 -122.385105 131 20ft 0kts
26-Dec-17 10:15 37.618892 -122.385105 131 20ft 0kts
26-Dec-17 10:16 37.618892 -122.385105 131 21ft 0kts
26-Dec-17 10:17 37.618892 -122.385105 131 21ft 0kts
26-Dec-17 10:18 37.618892 -122.385105 131 21ft 0kts
26-Dec-17 10:19 37.618892 -122.385105 131 21ft 0kts
26-Dec-17 10:20 37.618892 -122.385105 131 21ft 0kts
26-Dec-17 10:21 37.618892 -122.385105 131 21ft 0kts
26-Dec-17 10:22 37.618892 -122.385105 131 21ft 0kts
26-Dec-17 10:23 37.618892 -122.385105 131 21ft 0kts
26-Dec-17 10:24 37.619064 -122.385345 131 21ft 2kts
26-Dec-17 10:25 37.619419 -122.385840 131 21ft 0kts
26-Dec-17 10:26 37.619418 -122.385839 131 21ft 0kts
26-Dec-17 10:27 37.619417 -122.385838 131 21ft 0kts
26-Dec-17 10:28 37.619606 -122.385535 27 21ft 0kts
26-Dec-17 10:29 37.620065 -122.383101 117 21ft 20kts
26-Dec-17 10:30 37.616098 -122.380031 207 21ft 17kts
26-Dec-17 10:31 37.612179 -122.382603 207 21ft 15kts
26-Dec-17 10:32 37.609540 -122.383321 116 21ft 6kts
26-Dec-17 10:33 37.609194 -122.382210 67 21ft 7kts
26-Dec-17 10:34 37.629070 -122.368889 27 724ft 152kts
26-Dec-17 10:35 37.663541 -122.323418 58 2822ft 234kts
26-Dec-17 10:36 37.700725 -122.246611 54 6071ft 272kts
26-Dec-17 10:37 37.771347 -122.217316 0 9525ft 289kts
26-Dec-17 10:38 37.856707 -122.218637 357 11989ft 339kts
26-Dec-17 10:39 37.957611 -122.221032 357 14446ft 372kts
26-Dec-17 10:40 38.062433 -122.223734 356 17362ft 383kts
26-Dec-17 10:41 38.170933 -122.226609 355 19919ft 395kts
26-Dec-17 10:42 38.282630 -122.229602 355 22154ft 408kts
26-Dec-17 10:43 38.397418 -122.234868 351 24140ft 418kts
26-Dec-17 10:44 38.514628 -122.247823 350 25982ft 426kts
26-Dec-17 10:45 38.633795 -122.260606 350 27616ft 433kts
26-Dec-17 10:46 38.755230 -122.273385 350 29036ft 441kts
26-Dec-17 10:47 38.876838 -122.286152 350 30694ft 438kts
26-Dec-17 10:48 38.998041 -122.298908 349 32152ft 437kts
26-Dec-17 10:49 39.119181 -122.311699 349 33565ft 434kts
26-Dec-17 10:50 39.239349 -122.324431 349 34772ft 435kts
26-Dec-17 10:51 39.360304 -122.337292 348 35796ft 439kts
26-Dec-17 10:52 39.483065 -122.350386 348 36349ft 444kts
26-Dec-17 10:53 39.605264 -122.363474 348 36354ft 440kts
26-Dec-17 10:54 39.727190 -122.376574 348 36348ft 440kts
26-Dec-17 10:55 39.849137 -122.389723 348 36353ft 439kts
26-Dec-17 10:56 39.971030 -122.402913 348 36352ft 439kts
26-Dec-17 10:57 40.093033 -122.416161 348 36350ft 438kts
26-Dec-17 10:58 40.214459 -122.429397 348 36347ft 438kts
26-Dec-17 10:59 40.335842 -122.442673 348 36340ft 438kts
26-Dec-17 11:00 40.457937 -122.456076 348 36333ft 439kts
26-Dec-17 11:01 40.579434 -122.469462 348 36330ft 438kts
26-Dec-17 11:02 40.700828 -122.482885 348 36330ft 438kts
26-Dec-17 11:03 40.822411 -122.496377 348 36330ft 438kts
26-Dec-17 11:04 40.943809 -122.509902 348 36328ft 438kts
26-Dec-17 11:05 41.045329 -122.521250 348 36325ft 436kts
26-Dec-17 11:06 41.166280 -122.534820 348 36323ft 437kts
26-Dec-17 11:07 41.287065 -122.548378 348 36322ft 437kts
26-Dec-17 11:08 41.428492 -122.564384 347 36337ft 436kts
26-Dec-17 11:09 41.529259 -122.575771 348 36351ft 437kts
26-Dec-17 11:10 41.650873 -122.583712 349 36373ft 438kts
26-Dec-17 11:11 41.792992 -122.592836 349 36387ft 437kts
26-Dec-17 11:12 41.893973 -122.599394 349 36386ft 437kts
26-Dec-17 11:13 42.015880 -122.607391 349 36379ft 437kts
26-Dec-17 11:14 42.137040 -122.615391 349 36370ft 438kts
26-Dec-17 11:15 42.258642 -122.623477 349 36363ft 437kts
26-Dec-17 11:16 42.380581 -122.631633 349 36361ft 437kts
26-Dec-17 11:17 42.501992 -122.639785 349 36352ft 437kts
26-Dec-17 11:18 42.623422 -122.647906 349 36350ft 437kts
26-Dec-17 11:19 42.745280 -122.656148 349 36361ft 438kts
26-Dec-17 11:20 42.866568 -122.664384 349 36361ft 438kts
26-Dec-17 11:21 42.988493 -122.672697 349 36360ft 438kts
26-Dec-17 11:22 43.110480 -122.681024 349 36360ft 438kts
26-Dec-17 11:23 43.232053 -122.689360 349 36357ft 438kts
26-Dec-17 11:24 43.354114 -122.697788 349 36365ft 438kts
26-Dec-17 11:25 43.475583 -122.706430 349 36366ft 438kts
26-Dec-17 11:26 43.597003 -122.714637 349 35882ft 436kts
26-Dec-17 11:27 43.718402 -122.723031 349 33012ft 435kts
26-Dec-17 11:28 43.839101 -122.731394 349 30198ft 431kts
26-Dec-17 11:29 43.956609 -122.739589 349 28017ft 416kts
26-Dec-17 11:30 44.070810 -122.747620 349 25883ft 402kts
26-Dec-17 11:31 44.181207 -122.751616 356 23985ft 403kts
26-Dec-17 11:32 44.293477 -122.739512 357 22433ft 400kts
26-Dec-17 11:33 44.403409 -122.728276 357 20936ft 391kts
26-Dec-17 11:34 44.507571 -122.717871 357 19510ft 357kts
26-Dec-17 11:35 44.603193 -122.708352 357 18003ft 339kts
26-Dec-17 11:36 44.696206 -122.699021 357 15776ft 328kts
26-Dec-17 11:37 44.785558 -122.690011 357 13600ft 316kts
26-Dec-17 11:38 44.871499 -122.681372 357 11823ft 293kts
26-Dec-17 11:39 44.949998 -122.673453 358 10972ft 280kts
26-Dec-17 11:40 45.030389 -122.665639 358 10714ft 294kts
26-Dec-17 11:41 45.110726 -122.657360 0 9862ft 280kts
26-Dec-17 11:42 45.187158 -122.649449 1 8860ft 272kts
26-Dec-17 11:43 45.261849 -122.650265 342 7841ft 265kts
26-Dec-17 11:44 45.326790 -122.685183 337 7109ft 238kts
26-Dec-17 11:45 45.388919 -122.719403 338 6247ft 243kts
26-Dec-17 11:46 45.451495 -122.753754 338 5645ft 238kts
26-Dec-17 11:47 45.511698 -122.786919 338 5050ft 224kts
26-Dec-17 11:48 45.568795 -122.820059 335 4806ft 222kts
26-Dec-17 11:49 45.622023 -122.847736 18 3344ft 196kts
26-Dec-17 11:50 45.654944 -122.792228 53 2627ft 174kts
26-Dec-17 11:51 45.649392 -122.733116 122 2028ft 170kts
26-Dec-17 11:52 45.626217 -122.676262 118 1269ft 150kts
26-Dec-17 11:53 45.607044 -122.626792 118 490ft 142kts
26-Dec-17 11:54 45.588776 -122.580038 120 38ft 68kts
26-Dec-17 11:55 45.586803 -122.576152 190 38ft 0kts
26-Dec-17 11:56 45.587563 -122.579746 300 38ft 13kts
26-Dec-17 11:57 45.589649 -122.586448 265 38ft 14kts
26-Dec-17 11:58 45.590931 -122.591267 240 38ft 6kts
26-Dec-17 11:59 45.590467 -122.591727 208 38ft 0kts

Navigation Log

Ident Type
Flight plan parsing failed, navigation log unavailable